sensor_id;sensor_type;location;lat;lon;timestamp;temperature;humidity
19665;DHT22;9980;51.020;7.772;2023-10-19T00:00:43;13.30;99.90
19665;DHT22;9980;51.020;7.772;2023-10-19T00:03:16;13.30;99.90
19665;DHT22;9980;51.020;7.772;2023-10-19T00:05:45;13.30;99.90
19665;DHT22;9980;51.020;7.772;2023-10-19T00:08:13;13.30;99.90
19665;DHT22;9980;51.020;7.772;2023-10-19T00:10:49;13.30;99.90
19665;DHT22;9980;51.020;7.772;2023-10-19T00:13:29;13.30;99.90
19665;DHT22;9980;51.020;7.772;2023-10-19T00:15:56;13.30;99.90
19665;DHT22;9980;51.020;7.772;2023-10-19T00:18:27;13.30;99.90
19665;DHT22;9980;51.020;7.772;2023-10-19T00:20:54;13.30;99.90
19665;DHT22;9980;51.020;7.772;2023-10-19T00:23:55;13.40;99.90
19665;DHT22;9980;51.020;7.772;2023-10-19T00:26:24;13.40;99.90
19665;DHT22;9980;51.020;7.772;2023-10-19T00:28:55;13.40;99.90
19665;DHT22;9980;51.020;7.772;2023-10-19T00:31:27;13.40;99.90
19665;DHT22;9980;51.020;7.772;2023-10-19T00:33:55;13.40;99.90
19665;DHT22;9980;51.020;7.772;2023-10-19T00:36:23;13.40;99.90
19665;DHT22;9980;51.020;7.772;2023-10-19T00:38:51;13.40;99.90
19665;DHT22;9980;51.020;7.772;2023-10-19T00:41:24;13.40;99.90
19665;DHT22;9980;51.020;7.772;2023-10-19T00:43:59;13.40;99.90
19665;DHT22;9980;51.020;7.772;2023-10-19T00:46:30;13.50;99.90
19665;DHT22;9980;51.020;7.772;2023-10-19T00:49:10;13.50;99.90
19665;DHT22;9980;51.020;7.772;2023-10-19T00:51:48;13.50;99.90
19665;DHT22;9980;51.020;7.772;2023-10-19T00:57:03;13.50;99.90
19665;DHT22;9980;51.020;7.772;2023-10-19T00:59:54;13.50;99.90
19665;DHT22;9980;51.020;7.772;2023-10-19T01:02:22;13.60;99.90
19665;DHT22;9980;51.020;7.772;2023-10-19T01:04:53;13.60;99.90
19665;DHT22;9980;51.020;7.772;2023-10-19T01:07:33;13.60;99.90
19665;DHT22;9980;51.020;7.772;2023-10-19T01:10:07;13.60;99.90
19665;DHT22;9980;51.020;7.772;2023-10-19T01:12:35;13.60;99.90
19665;DHT22;9980;51.020;7.772;2023-10-19T01:15:15;13.60;99.90
19665;DHT22;9980;51.020;7.772;2023-10-19T01:17:49;13.60;99.90
19665;DHT22;9980;51.020;7.772;2023-10-19T01:20:25;13.60;99.90
19665;DHT22;9980;51.020;7.772;2023-10-19T01:22:56;13.70;99.90
19665;DHT22;9980;51.020;7.772;2023-10-19T01:28:17;13.70;99.90
19665;DHT22;9980;51.020;7.772;2023-10-19T01:30:45;13.70;99.90
19665;DHT22;9980;51.020;7.772;2023-10-19T01:33:13;13.70;99.90
19665;DHT22;9980;51.020;7.772;2023-10-19T01:35:42;13.80;99.90
19665;DHT22;9980;51.020;7.772;2023-10-19T01:38:28;13.80;99.90
19665;DHT22;9980;51.020;7.772;2023-10-19T01:41:02;13.80;99.90
19665;DHT22;9980;51.020;7.772;2023-10-19T01:43:50;13.80;99.90
19665;DHT22;9980;51.020;7.772;2023-10-19T01:46:22;13.90;99.90
19665;DHT22;9980;51.020;7.772;2023-10-19T01:49:02;13.90;99.90
19665;DHT22;9980;51.020;7.772;2023-10-19T01:51:32;13.90;99.90
19665;DHT22;9980;51.020;7.772;2023-10-19T01:54:00;13.90;99.90
19665;DHT22;9980;51.020;7.772;2023-10-19T01:56:27;13.90;99.90
19665;DHT22;9980;51.020;7.772;2023-10-19T01:58:55;13.90;99.90
19665;DHT22;9980;51.020;7.772;2023-10-19T02:01:24;14.00;99.90
19665;DHT22;9980;51.020;7.772;2023-10-19T02:04:05;14.00;99.90
19665;DHT22;9980;51.020;7.772;2023-10-19T02:06:34;14.00;99.90
19665;DHT22;9980;51.020;7.772;2023-10-19T02:09:07;14.00;99.90
19665;DHT22;9980;51.020;7.772;2023-10-19T02:11:36;14.10;99.90
19665;DHT22;9980;51.020;7.772;2023-10-19T02:14:13;14.00;99.90
19665;DHT22;9980;51.020;7.772;2023-10-19T02:16:42;14.10;99.90
19665;DHT22;9980;51.020;7.772;2023-10-19T02:19:10;14.10;99.90
19665;DHT22;9980;51.020;7.772;2023-10-19T02:21:37;14.10;99.90
19665;DHT22;9980;51.020;7.772;2023-10-19T02:24:07;14.10;99.90
19665;DHT22;9980;51.020;7.772;2023-10-19T02:26:35;14.10;99.90
19665;DHT22;9980;51.020;7.772;2023-10-19T02:29:07;14.20;99.90
19665;DHT22;9980;51.020;7.772;2023-10-19T02:31:39;14.20;99.90
19665;DHT22;9980;51.020;7.772;2023-10-19T02:34:08;14.20;99.90
19665;DHT22;9980;51.020;7.772;2023-10-19T02:36:38;14.20;99.90
19665;DHT22;9980;51.020;7.772;2023-10-19T02:39:10;14.30;99.90
19665;DHT22;9980;51.020;7.772;2023-10-19T02:41:43;14.30;99.90
19665;DHT22;9980;51.020;7.772;2023-10-19T02:44:19;14.30;99.90
19665;DHT22;9980;51.020;7.772;2023-10-19T02:46:54;14.30;99.90
19665;DHT22;9980;51.020;7.772;2023-10-19T02:49:27;14.30;99.90
19665;DHT22;9980;51.020;7.772;2023-10-19T02:51:56;14.40;99.90
19665;DHT22;9980;51.020;7.772;2023-10-19T02:54:29;14.40;99.90
19665;DHT22;9980;51.020;7.772;2023-10-19T02:57:00;14.40;99.90
19665;DHT22;9980;51.020;7.772;2023-10-19T02:59:27;14.50;99.90
19665;DHT22;9980;51.020;7.772;2023-10-19T03:02:00;14.50;99.90
19665;DHT22;9980;51.020;7.772;2023-10-19T03:04:29;14.50;99.90
19665;DHT22;9980;51.020;7.772;2023-10-19T03:06:57;14.60;99.90
19665;DHT22;9980;51.020;7.772;2023-10-19T03:09:24;14.70;99.90
19665;DHT22;9980;51.020;7.772;2023-10-19T03:11:54;14.70;99.90
19665;DHT22;9980;51.020;7.772;2023-10-19T03:14:27;14.80;99.90
19665;DHT22;9980;51.020;7.772;2023-10-19T03:16:54;14.80;99.90
19665;DHT22;9980;51.020;7.772;2023-10-19T03:19:22;14.80;99.90
19665;DHT22;9980;51.020;7.772;2023-10-19T03:21:52;14.90;99.90
19665;DHT22;9980;51.020;7.772;2023-10-19T03:24:27;14.90;99.90
19665;DHT22;9980;51.020;7.772;2023-10-19T03:27:12;14.90;99.90
19665;DHT22;9980;51.020;7.772;2023-10-19T03:29:51;14.90;99.90
19665;DHT22;9980;51.020;7.772;2023-10-19T03:32:23;15.00;99.90
19665;DHT22;9980;51.020;7.772;2023-10-19T03:34:56;15.00;99.90
19665;DHT22;9980;51.020;7.772;2023-10-19T03:37:25;15.00;99.90
19665;DHT22;9980;51.020;7.772;2023-10-19T03:39:56;15.10;99.90
19665;DHT22;9980;51.020;7.772;2023-10-19T03:42:24;15.10;99.90
19665;DHT22;9980;51.020;7.772;2023-10-19T03:44:59;15.10;99.90
19665;DHT22;9980;51.020;7.772;2023-10-19T03:47:34;15.20;99.90
19665;DHT22;9980;51.020;7.772;2023-10-19T03:50:03;15.20;99.90
19665;DHT22;9980;51.020;7.772;2023-10-19T03:52:35;15.20;99.90
19665;DHT22;9980;51.020;7.772;2023-10-19T03:55:06;15.30;99.90
19665;DHT22;9980;51.020;7.772;2023-10-19T03:57:49;15.30;99.90
19665;DHT22;9980;51.020;7.772;2023-10-19T04:00:22;15.30;99.90
19665;DHT22;9980;51.020;7.772;2023-10-19T04:02:53;15.30;99.90
19665;DHT22;9980;51.020;7.772;2023-10-19T04:05:22;15.30;99.90
19665;DHT22;9980;51.020;7.772;2023-10-19T04:07:50;15.30;99.90
19665;DHT22;9980;51.020;7.772;2023-10-19T04:10:19;15.30;99.90
19665;DHT22;9980;51.020;7.772;2023-10-19T04:13:01;15.40;99.90
19665;DHT22;9980;51.020;7.772;2023-10-19T04:15:30;15.40;99.90
19665;DHT22;9980;51.020;7.772;2023-10-19T04:18:01;15.40;99.90
19665;DHT22;9980;51.020;7.772;2023-10-19T04:20:29;15.40;99.90
19665;DHT22;9980;51.020;7.772;2023-10-19T04:22:57;15.40;99.90
19665;DHT22;9980;51.020;7.772;2023-10-19T04:25:25;15.40;99.90
19665;DHT22;9980;51.020;7.772;2023-10-19T04:27:53;15.40;99.90
19665;DHT22;9980;51.020;7.772;2023-10-19T04:30:20;15.50;99.90
19665;DHT22;9980;51.020;7.772;2023-10-19T04:32:53;15.40;99.90
19665;DHT22;9980;51.020;7.772;2023-10-19T04:35:25;15.50;99.90
19665;DHT22;9980;51.020;7.772;2023-10-19T04:37:56;15.50;99.90
19665;DHT22;9980;51.020;7.772;2023-10-19T04:40:23;15.50;99.90
19665;DHT22;9980;51.020;7.772;2023-10-19T04:42:52;15.50;99.90
19665;DHT22;9980;51.020;7.772;2023-10-19T04:45:20;15.50;99.90
19665;DHT22;9980;51.020;7.772;2023-10-19T04:47:51;15.50;99.90
19665;DHT22;9980;51.020;7.772;2023-10-19T04:50:19;15.50;99.90
19665;DHT22;9980;51.020;7.772;2023-10-19T04:52:46;15.60;99.90
19665;DHT22;9980;51.020;7.772;2023-10-19T04:55:14;15.60;99.90
19665;DHT22;9980;51.020;7.772;2023-10-19T04:57:41;15.60;99.90
19665;DHT22;9980;51.020;7.772;2023-10-19T05:00:08;15.60;99.90
19665;DHT22;9980;51.020;7.772;2023-10-19T05:02:41;15.60;99.90
19665;DHT22;9980;51.020;7.772;2023-10-19T05:05:09;15.60;99.90
19665;DHT22;9980;51.020;7.772;2023-10-19T05:07:36;15.60;99.90
19665;DHT22;9980;51.020;7.772;2023-10-19T05:10:04;15.60;99.90
19665;DHT22;9980;51.020;7.772;2023-10-19T05:12:32;15.70;99.90
19665;DHT22;9980;51.020;7.772;2023-10-19T05:14:59;15.70;99.90
19665;DHT22;9980;51.020;7.772;2023-10-19T05:17:26;15.70;99.90
19665;DHT22;9980;51.020;7.772;2023-10-19T05:19:54;15.70;99.90
19665;DHT22;9980;51.020;7.772;2023-10-19T05:22:23;15.70;99.90
19665;DHT22;9980;51.020;7.772;2023-10-19T05:24:52;15.70;99.90
19665;DHT22;9980;51.020;7.772;2023-10-19T05:27:18;15.70;99.90
19665;DHT22;9980;51.020;7.772;2023-10-19T05:29:46;15.80;99.90
19665;DHT22;9980;51.020;7.772;2023-10-19T05:32:13;15.80;99.90
19665;DHT22;9980;51.020;7.772;2023-10-19T05:34:40;15.80;99.90
19665;DHT22;9980;51.020;7.772;2023-10-19T05:37:07;15.80;99.90
19665;DHT22;9980;51.020;7.772;2023-10-19T05:39:35;15.80;99.90
19665;DHT22;9980;51.020;7.772;2023-10-19T05:42:03;15.80;99.90
19665;DHT22;9980;51.020;7.772;2023-10-19T05:44:31;15.90;99.90
19665;DHT22;9980;51.020;7.772;2023-10-19T05:46:59;15.80;99.90
19665;DHT22;9980;51.020;7.772;2023-10-19T05:49:27;15.90;99.90
19665;DHT22;9980;51.020;7.772;2023-10-19T05:51:57;15.90;99.90
19665;DHT22;9980;51.020;7.772;2023-10-19T05:54:24;15.90;99.90
19665;DHT22;9980;51.020;7.772;2023-10-19T05:56:54;15.90;99.90
19665;DHT22;9980;51.020;7.772;2023-10-19T05:59:22;15.90;99.90
19665;DHT22;9980;51.020;7.772;2023-10-19T06:01:53;16.00;99.90
19665;DHT22;9980;51.020;7.772;2023-10-19T06:04:20;16.00;99.90
19665;DHT22;9980;51.020;7.772;2023-10-19T06:06:57;16.00;99.90
19665;DHT22;9980;51.020;7.772;2023-10-19T06:09:24;16.00;99.90
19665;DHT22;9980;51.020;7.772;2023-10-19T06:11:56;16.00;99.90
19665;DHT22;9980;51.020;7.772;2023-10-19T06:14:23;16.00;99.90
19665;DHT22;9980;51.020;7.772;2023-10-19T06:16:50;16.00;99.90
19665;DHT22;9980;51.020;7.772;2023-10-19T06:19:19;16.10;99.90
19665;DHT22;9980;51.020;7.772;2023-10-19T06:21:46;16.10;99.90
19665;DHT22;9980;51.020;7.772;2023-10-19T06:24:13;16.10;99.90
19665;DHT22;9980;51.020;7.772;2023-10-19T06:26:42;16.10;99.90
19665;DHT22;9980;51.020;7.772;2023-10-19T06:29:10;16.10;99.90
19665;DHT22;9980;51.020;7.772;2023-10-19T06:31:36;16.10;99.90
19665;DHT22;9980;51.020;7.772;2023-10-19T06:34:04;16.20;99.90
19665;DHT22;9980;51.020;7.772;2023-10-19T06:36:31;16.20;99.90
19665;DHT22;9980;51.020;7.772;2023-10-19T06:38:58;16.20;99.90
19665;DHT22;9980;51.020;7.772;2023-10-19T06:41:25;16.30;99.90
19665;DHT22;9980;51.020;7.772;2023-10-19T06:43:52;16.30;99.90
19665;DHT22;9980;51.020;7.772;2023-10-19T06:46:19;16.30;99.90
19665;DHT22;9980;51.020;7.772;2023-10-19T06:48:46;16.30;99.90
19665;DHT22;9980;51.020;7.772;2023-10-19T06:51:13;16.40;99.90
19665;DHT22;9980;51.020;7.772;2023-10-19T06:53:42;16.40;99.90
19665;DHT22;9980;51.020;7.772;2023-10-19T06:56:09;16.40;99.90
19665;DHT22;9980;51.020;7.772;2023-10-19T06:58:37;16.40;99.90
19665;DHT22;9980;51.020;7.772;2023-10-19T07:01:07;16.50;99.90
19665;DHT22;9980;51.020;7.772;2023-10-19T07:03:35;16.50;99.90
19665;DHT22;9980;51.020;7.772;2023-10-19T07:06:03;16.50;99.90
19665;DHT22;9980;51.020;7.772;2023-10-19T07:08:38;16.60;99.90
19665;DHT22;9980;51.020;7.772;2023-10-19T07:11:07;16.60;99.90
19665;DHT22;9980;51.020;7.772;2023-10-19T07:13:35;16.70;99.90
19665;DHT22;9980;51.020;7.772;2023-10-19T07:16:02;16.70;99.90
19665;DHT22;9980;51.020;7.772;2023-10-19T07:18:31;16.70;99.90
19665;DHT22;9980;51.020;7.772;2023-10-19T07:20:58;16.70;99.90
19665;DHT22;9980;51.020;7.772;2023-10-19T07:23:32;16.70;99.90
19665;DHT22;9980;51.020;7.772;2023-10-19T07:25:59;16.80;99.90
19665;DHT22;9980;51.020;7.772;2023-10-19T07:28:27;16.80;99.90
19665;DHT22;9980;51.020;7.772;2023-10-19T07:30:54;16.80;99.90
19665;DHT22;9980;51.020;7.772;2023-10-19T07:33:23;16.80;99.90
19665;DHT22;9980;51.020;7.772;2023-10-19T07:35:50;16.90;99.90
19665;DHT22;9980;51.020;7.772;2023-10-19T07:38:26;16.90;99.90
19665;DHT22;9980;51.020;7.772;2023-10-19T07:40:55;16.90;99.90
19665;DHT22;9980;51.020;7.772;2023-10-19T07:43:22;16.90;99.90
19665;DHT22;9980;51.020;7.772;2023-10-19T07:45:50;16.90;99.90
19665;DHT22;9980;51.020;7.772;2023-10-19T07:48:19;16.90;99.90
19665;DHT22;9980;51.020;7.772;2023-10-19T07:50:46;17.00;99.90
19665;DHT22;9980;51.020;7.772;2023-10-19T07:53:13;17.00;99.90
19665;DHT22;9980;51.020;7.772;2023-10-19T07:55:40;17.00;99.90
19665;DHT22;9980;51.020;7.772;2023-10-19T07:58:08;17.00;99.90
19665;DHT22;9980;51.020;7.772;2023-10-19T08:00:36;17.00;99.90
19665;DHT22;9980;51.020;7.772;2023-10-19T08:03:04;17.00;99.90
19665;DHT22;9980;51.020;7.772;2023-10-19T08:05:33;17.10;99.90
19665;DHT22;9980;51.020;7.772;2023-10-19T08:08:01;17.10;99.90
19665;DHT22;9980;51.020;7.772;2023-10-19T08:10:31;17.10;99.90
19665;DHT22;9980;51.020;7.772;2023-10-19T08:12:58;17.20;99.90
19665;DHT22;9980;51.020;7.772;2023-10-19T08:15:28;17.20;99.90
19665;DHT22;9980;51.020;7.772;2023-10-19T08:17:57;17.20;99.90
19665;DHT22;9980;51.020;7.772;2023-10-19T08:20:25;17.20;99.90
19665;DHT22;9980;51.020;7.772;2023-10-19T08:22:59;17.30;99.90
19665;DHT22;9980;51.020;7.772;2023-10-19T08:25:29;17.30;99.90
19665;DHT22;9980;51.020;7.772;2023-10-19T08:27:59;17.40;99.90
19665;DHT22;9980;51.020;7.772;2023-10-19T08:30:28;17.40;99.90
19665;DHT22;9980;51.020;7.772;2023-10-19T08:32:55;17.40;99.90
19665;DHT22;9980;51.020;7.772;2023-10-19T08:35:26;17.50;99.90
19665;DHT22;9980;51.020;7.772;2023-10-19T08:37:54;17.50;99.90
19665;DHT22;9980;51.020;7.772;2023-10-19T08:40:26;17.60;99.90
19665;DHT22;9980;51.020;7.772;2023-10-19T08:42:54;17.60;99.90
19665;DHT22;9980;51.020;7.772;2023-10-19T08:45:22;17.70;99.90
19665;DHT22;9980;51.020;7.772;2023-10-19T08:47:56;17.70;99.90
19665;DHT22;9980;51.020;7.772;2023-10-19T08:50:29;17.80;99.90
19665;DHT22;9980;51.020;7.772;2023-10-19T08:53:02;17.80;99.90
19665;DHT22;9980;51.020;7.772;2023-10-19T08:55:30;17.90;99.90
19665;DHT22;9980;51.020;7.772;2023-10-19T08:58:15;17.90;99.90
19665;DHT22;9980;51.020;7.772;2023-10-19T09:03:20;18.10;99.90
19665;DHT22;9980;51.020;7.772;2023-10-19T09:05:49;18.10;99.90
19665;DHT22;9980;51.020;7.772;2023-10-19T09:08:18;18.20;99.90
19665;DHT22;9980;51.020;7.772;2023-10-19T09:10:49;18.20;99.90
19665;DHT22;9980;51.020;7.772;2023-10-19T09:13:18;18.30;99.90
19665;DHT22;9980;51.020;7.772;2023-10-19T09:15:47;18.40;99.90
19665;DHT22;9980;51.020;7.772;2023-10-19T09:18:23;18.40;99.90
19665;DHT22;9980;51.020;7.772;2023-10-19T09:20:52;18.50;99.90
19665;DHT22;9980;51.020;7.772;2023-10-19T09:25:52;18.60;99.90
19665;DHT22;9980;51.020;7.772;2023-10-19T09:28:24;18.70;99.90
19665;DHT22;9980;51.020;7.772;2023-10-19T09:30:52;18.80;99.90
19665;DHT22;9980;51.020;7.772;2023-10-19T09:33:21;18.80;99.90
19665;DHT22;9980;51.020;7.772;2023-10-19T09:35:51;18.90;99.90
19665;DHT22;9980;51.020;7.772;2023-10-19T09:38:23;18.90;99.90
19665;DHT22;9980;51.020;7.772;2023-10-19T09:40:53;19.00;99.90
19665;DHT22;9980;51.020;7.772;2023-10-19T09:46:11;19.20;99.90
19665;DHT22;9980;51.020;7.772;2023-10-19T09:48:45;19.30;99.90
19665;DHT22;9980;51.020;7.772;2023-10-19T09:51:13;19.40;99.90
19665;DHT22;9980;51.020;7.772;2023-10-19T09:53:47;19.40;99.90
19665;DHT22;9980;51.020;7.772;2023-10-19T09:56:36;19.50;99.90
19665;DHT22;9980;51.020;7.772;2023-10-19T09:59:21;19.70;99.90
19665;DHT22;9980;51.020;7.772;2023-10-19T10:02:13;19.80;99.90
19665;DHT22;9980;51.020;7.772;2023-10-19T10:04:44;19.90;99.90
19665;DHT22;9980;51.020;7.772;2023-10-19T10:07:15;20.10;99.90
19665;DHT22;9980;51.020;7.772;2023-10-19T10:10:04;20.20;99.90
19665;DHT22;9980;51.020;7.772;2023-10-19T10:12:31;20.40;99.90
19665;DHT22;9980;51.020;7.772;2023-10-19T10:15:05;20.50;99.90
19665;DHT22;9980;51.020;7.772;2023-10-19T10:17:38;20.70;99.90
19665;DHT22;9980;51.020;7.772;2023-10-19T10:22:44;20.90;99.90
19665;DHT22;9980;51.020;7.772;2023-10-19T10:25:27;21.00;99.90
19665;DHT22;9980;51.020;7.772;2023-10-19T10:27:56;21.10;99.90
19665;DHT22;9980;51.020;7.772;2023-10-19T10:30:23;21.20;99.90
19665;DHT22;9980;51.020;7.772;2023-10-19T10:32:51;21.20;99.90
19665;DHT22;9980;51.020;7.772;2023-10-19T10:38:07;21.40;99.90
19665;DHT22;9980;51.020;7.772;2023-10-19T10:40:45;21.40;99.90
19665;DHT22;9980;51.020;7.772;2023-10-19T10:43:19;21.40;99.90
19665;DHT22;9980;51.020;7.772;2023-10-19T10:45:46;21.50;99.90
19665;DHT22;9980;51.020;7.772;2023-10-19T10:48:14;21.50;99.90
19665;DHT22;9980;51.020;7.772;2023-10-19T10:50:42;21.60;99.90
19665;DHT22;9980;51.020;7.772;2023-10-19T10:53:12;21.60;99.90
19665;DHT22;9980;51.020;7.772;2023-10-19T10:55:40;21.60;99.90
19665;DHT22;9980;51.020;7.772;2023-10-19T10:58:07;21.60;99.90
19665;DHT22;9980;51.020;7.772;2023-10-19T11:00:42;21.60;99.90
19665;DHT22;9980;51.020;7.772;2023-10-19T11:03:09;21.60;99.90
19665;DHT22;9980;51.020;7.772;2023-10-19T11:05:37;21.70;99.90
19665;DHT22;9980;51.020;7.772;2023-10-19T11:08:13;21.70;99.90
19665;DHT22;9980;51.020;7.772;2023-10-19T11:10:42;21.70;99.90
19665;DHT22;9980;51.020;7.772;2023-10-19T11:13:12;21.70;99.90
19665;DHT22;9980;51.020;7.772;2023-10-19T11:15:49;21.60;99.90
19665;DHT22;9980;51.020;7.772;2023-10-19T11:18:30;21.60;99.90
19665;DHT22;9980;51.020;7.772;2023-10-19T11:21:10;21.60;99.90
19665;DHT22;9980;51.020;7.772;2023-10-19T11:23:45;21.50;99.90
19665;DHT22;9980;51.020;7.772;2023-10-19T11:26:21;21.50;99.90
19665;DHT22;9980;51.020;7.772;2023-10-19T11:29:01;21.50;99.90
19665;DHT22;9980;51.020;7.772;2023-10-19T11:31:31;21.50;99.90
19665;DHT22;9980;51.020;7.772;2023-10-19T11:34:08;21.50;99.90
19665;DHT22;9980;51.020;7.772;2023-10-19T11:36:56;21.50;99.90
19665;DHT22;9980;51.020;7.772;2023-10-19T11:39:26;21.50;99.90
19665;DHT22;9980;51.020;7.772;2023-10-19T11:41:53;21.50;99.90
19665;DHT22;9980;51.020;7.772;2023-10-19T11:44:20;21.50;99.90
19665;DHT22;9980;51.020;7.772;2023-10-19T11:46:47;21.50;99.90
19665;DHT22;9980;51.020;7.772;2023-10-19T11:49:14;21.50;99.90
19665;DHT22;9980;51.020;7.772;2023-10-19T11:51:40;21.40;99.90
19665;DHT22;9980;51.020;7.772;2023-10-19T11:54:07;21.40;99.90
19665;DHT22;9980;51.020;7.772;2023-10-19T11:56:34;21.40;99.90
19665;DHT22;9980;51.020;7.772;2023-10-19T11:59:01;21.30;99.90
19665;DHT22;9980;51.020;7.772;2023-10-19T12:01:28;21.30;99.90
19665;DHT22;9980;51.020;7.772;2023-10-19T12:03:56;21.20;99.90
19665;DHT22;9980;51.020;7.772;2023-10-19T12:06:23;21.20;99.90
19665;DHT22;9980;51.020;7.772;2023-10-19T12:08:51;21.20;99.90
19665;DHT22;9980;51.020;7.772;2023-10-19T12:11:18;21.10;99.90
19665;DHT22;9980;51.020;7.772;2023-10-19T12:13:46;21.10;99.90
19665;DHT22;9980;51.020;7.772;2023-10-19T12:16:15;21.00;99.90
19665;DHT22;9980;51.020;7.772;2023-10-19T12:18:46;21.00;99.90
19665;DHT22;9980;51.020;7.772;2023-10-19T12:21:15;21.00;99.90
19665;DHT22;9980;51.020;7.772;2023-10-19T12:23:44;20.90;99.90
19665;DHT22;9980;51.020;7.772;2023-10-19T12:26:11;20.90;99.90
19665;DHT22;9980;51.020;7.772;2023-10-19T12:28:39;20.90;99.90
19665;DHT22;9980;51.020;7.772;2023-10-19T12:31:08;20.80;99.90
19665;DHT22;9980;51.020;7.772;2023-10-19T12:33:39;20.80;99.90
19665;DHT22;9980;51.020;7.772;2023-10-19T12:36:08;20.80;99.90
19665;DHT22;9980;51.020;7.772;2023-10-19T12:38:53;20.80;99.90
19665;DHT22;9980;51.020;7.772;2023-10-19T12:41:24;20.80;99.90
19665;DHT22;9980;51.020;7.772;2023-10-19T12:43:51;20.80;99.90
19665;DHT22;9980;51.020;7.772;2023-10-19T12:46:19;20.80;99.90
19665;DHT22;9980;51.020;7.772;2023-10-19T12:48:51;20.70;99.90
19665;DHT22;9980;51.020;7.772;2023-10-19T12:51:19;20.70;99.90
19665;DHT22;9980;51.020;7.772;2023-10-19T12:53:54;20.70;99.90
19665;DHT22;9980;51.020;7.772;2023-10-19T12:56:22;20.70;99.90
19665;DHT22;9980;51.020;7.772;2023-10-19T12:58:55;20.70;99.90
19665;DHT22;9980;51.020;7.772;2023-10-19T13:01:22;20.70;99.90
19665;DHT22;9980;51.020;7.772;2023-10-19T13:03:50;20.70;99.90
19665;DHT22;9980;51.020;7.772;2023-10-19T13:06:18;20.60;99.90
19665;DHT22;9980;51.020;7.772;2023-10-19T13:08:46;20.60;99.90
19665;DHT22;9980;51.020;7.772;2023-10-19T13:11:13;20.60;99.90
19665;DHT22;9980;51.020;7.772;2023-10-19T13:13:45;20.60;99.90
19665;DHT22;9980;51.020;7.772;2023-10-19T13:16:13;20.60;99.90
19665;DHT22;9980;51.020;7.772;2023-10-19T13:18:41;20.60;99.90
19665;DHT22;9980;51.020;7.772;2023-10-19T13:21:08;20.60;99.90
19665;DHT22;9980;51.020;7.772;2023-10-19T13:23:43;20.60;99.90
19665;DHT22;9980;51.020;7.772;2023-10-19T13:26:10;20.60;99.90
19665;DHT22;9980;51.020;7.772;2023-10-19T13:28:46;20.60;99.90
19665;DHT22;9980;51.020;7.772;2023-10-19T13:31:15;20.60;99.90
19665;DHT22;9980;51.020;7.772;2023-10-19T13:33:42;20.50;99.90
19665;DHT22;9980;51.020;7.772;2023-10-19T13:36:10;20.50;99.90
19665;DHT22;9980;51.020;7.772;2023-10-19T13:38:39;20.50;99.90
19665;DHT22;9980;51.020;7.772;2023-10-19T13:41:06;20.50;99.90
19665;DHT22;9980;51.020;7.772;2023-10-19T13:43:43;20.40;99.90
19665;DHT22;9980;51.020;7.772;2023-10-19T13:46:11;20.40;99.90
19665;DHT22;9980;51.020;7.772;2023-10-19T13:48:38;20.40;99.90
19665;DHT22;9980;51.020;7.772;2023-10-19T13:51:06;20.40;99.90
19665;DHT22;9980;51.020;7.772;2023-10-19T13:53:41;20.40;99.90
19665;DHT22;9980;51.020;7.772;2023-10-19T13:56:12;20.40;99.90
19665;DHT22;9980;51.020;7.772;2023-10-19T13:58:41;20.30;99.90
19665;DHT22;9980;51.020;7.772;2023-10-19T14:01:10;20.40;99.90
19665;DHT22;9980;51.020;7.772;2023-10-19T14:03:40;20.30;99.90
19665;DHT22;9980;51.020;7.772;2023-10-19T14:06:14;20.30;99.90
19665;DHT22;9980;51.020;7.772;2023-10-19T14:08:42;20.30;99.90
19665;DHT22;9980;51.020;7.772;2023-10-19T14:11:09;20.30;99.90
19665;DHT22;9980;51.020;7.772;2023-10-19T14:13:36;20.40;99.90
19665;DHT22;9980;51.020;7.772;2023-10-19T14:16:06;20.40;99.90
19665;DHT22;9980;51.020;7.772;2023-10-19T14:18:36;20.30;99.90
19665;DHT22;9980;51.020;7.772;2023-10-19T14:21:16;20.40;99.90
19665;DHT22;9980;51.020;7.772;2023-10-19T14:23:43;20.40;99.90
19665;DHT22;9980;51.020;7.772;2023-10-19T14:26:12;20.40;99.90
19665;DHT22;9980;51.020;7.772;2023-10-19T14:28:39;20.30;99.90
19665;DHT22;9980;51.020;7.772;2023-10-19T14:31:07;20.30;99.90
19665;DHT22;9980;51.020;7.772;2023-10-19T14:33:34;20.30;99.90
19665;DHT22;9980;51.020;7.772;2023-10-19T14:36:04;20.30;99.90
19665;DHT22;9980;51.020;7.772;2023-10-19T14:38:31;20.20;99.90
19665;DHT22;9980;51.020;7.772;2023-10-19T14:40:58;20.30;99.90
19665;DHT22;9980;51.020;7.772;2023-10-19T14:43:25;20.20;99.90
19665;DHT22;9980;51.020;7.772;2023-10-19T14:45:52;20.20;99.90
19665;DHT22;9980;51.020;7.772;2023-10-19T14:48:19;20.20;99.90
19665;DHT22;9980;51.020;7.772;2023-10-19T14:50:48;20.10;99.90
19665;DHT22;9980;51.020;7.772;2023-10-19T14:53:17;20.10;99.90
19665;DHT22;9980;51.020;7.772;2023-10-19T14:55:45;20.10;99.90
19665;DHT22;9980;51.020;7.772;2023-10-19T14:58:14;20.10;99.90
19665;DHT22;9980;51.020;7.772;2023-10-19T15:00:41;20.00;99.90
19665;DHT22;9980;51.020;7.772;2023-10-19T15:03:21;20.00;99.90
19665;DHT22;9980;51.020;7.772;2023-10-19T15:05:51;20.00;99.90
19665;DHT22;9980;51.020;7.772;2023-10-19T15:08:19;20.00;99.90
19665;DHT22;9980;51.020;7.772;2023-10-19T15:10:47;19.90;99.90
19665;DHT22;9980;51.020;7.772;2023-10-19T15:13:14;19.90;99.90
19665;DHT22;9980;51.020;7.772;2023-10-19T15:15:42;19.90;99.90
19665;DHT22;9980;51.020;7.772;2023-10-19T15:18:09;19.80;99.90
19665;DHT22;9980;51.020;7.772;2023-10-19T15:20:36;19.90;99.90
19665;DHT22;9980;51.020;7.772;2023-10-19T15:23:04;19.90;99.90
19665;DHT22;9980;51.020;7.772;2023-10-19T15:25:32;19.80;99.90
19665;DHT22;9980;51.020;7.772;2023-10-19T15:27:59;19.80;99.90
19665;DHT22;9980;51.020;7.772;2023-10-19T15:30:25;19.80;99.90
19665;DHT22;9980;51.020;7.772;2023-10-19T15:32:53;19.80;99.90
19665;DHT22;9980;51.020;7.772;2023-10-19T15:35:21;19.80;99.90
19665;DHT22;9980;51.020;7.772;2023-10-19T15:37:53;19.80;99.90
19665;DHT22;9980;51.020;7.772;2023-10-19T15:40:24;19.80;99.90
19665;DHT22;9980;51.020;7.772;2023-10-19T15:42:52;19.80;99.90
19665;DHT22;9980;51.020;7.772;2023-10-19T15:45:21;19.70;99.90
19665;DHT22;9980;51.020;7.772;2023-10-19T15:47:52;19.70;99.90
19665;DHT22;9980;51.020;7.772;2023-10-19T15:50:20;19.70;99.90
19665;DHT22;9980;51.020;7.772;2023-10-19T15:52:48;19.70;99.90
19665;DHT22;9980;51.020;7.772;2023-10-19T15:55:16;19.60;99.90
19665;DHT22;9980;51.020;7.772;2023-10-19T15:57:46;19.60;99.90
19665;DHT22;9980;51.020;7.772;2023-10-19T16:00:13;19.60;99.90
19665;DHT22;9980;51.020;7.772;2023-10-19T16:02:42;19.60;99.90
19665;DHT22;9980;51.020;7.772;2023-10-19T16:05:10;19.60;99.90
19665;DHT22;9980;51.020;7.772;2023-10-19T16:07:43;19.50;99.90
19665;DHT22;9980;51.020;7.772;2023-10-19T16:10:10;19.50;99.90
19665;DHT22;9980;51.020;7.772;2023-10-19T16:12:40;19.50;99.90
19665;DHT22;9980;51.020;7.772;2023-10-19T16:15:11;19.50;99.90
19665;DHT22;9980;51.020;7.772;2023-10-19T16:17:39;19.40;99.90
19665;DHT22;9980;51.020;7.772;2023-10-19T16:20:10;19.50;99.90
19665;DHT22;9980;51.020;7.772;2023-10-19T16:22:39;19.40;99.90